createdAt,value
2018-07-02T00:00:15.506Z,1005.28
2018-07-02T00:01:15.565Z,1005.24
2018-07-02T00:02:15.626Z,1005.29
2018-07-02T00:03:15.685Z,1005.27
2018-07-02T00:04:15.745Z,1005.26
2018-07-02T00:05:15.806Z,1005.28
2018-07-02T00:06:15.865Z,1005.29
2018-07-02T00:07:15.925Z,1005.28
2018-07-02T00:08:15.986Z,1005.25
2018-07-02T00:09:16.044Z,1005.22
2018-07-02T00:10:16.105Z,1005.22
2018-07-02T00:11:16.165Z,1005.23
2018-07-02T00:12:16.225Z,1005.22
2018-07-02T00:13:16.284Z,1005.26
2018-07-02T00:14:16.344Z,1005.21
2018-07-02T00:15:16.403Z,1005.17
2018-07-02T00:16:16.463Z,1005.17
2018-07-02T00:17:16.524Z,1005.17
2018-07-02T00:18:16.588Z,1005.16
2018-07-02T00:19:16.644Z,1005.15
2018-07-02T00:20:16.705Z,1005.14
2018-07-02T00:21:16.763Z,1005.19
2018-07-02T00:22:16.826Z,1005.18
2018-07-02T00:23:16.884Z,1005.24
2018-07-02T00:24:17.192Z,1005.17
2018-07-02T00:25:17.003Z,1005.20
2018-07-02T00:26:17.063Z,1005.23
2018-07-02T00:27:17.122Z,1005.22
2018-07-02T00:28:17.181Z,1005.17
2018-07-02T00:29:17.244Z,1005.16
2018-07-02T00:30:17.302Z,1005.17
2018-07-02T00:31:17.361Z,1005.18
2018-07-02T00:32:17.421Z,1005.18
2018-07-02T00:33:17.482Z,1005.13
2018-07-02T00:34:17.541Z,1005.14
2018-07-02T00:35:17.600Z,1005.13
2018-07-02T00:36:17.660Z,1005.12
2018-07-02T00:37:17.720Z,1005.08
2018-07-02T00:38:17.780Z,1005.13
2018-07-02T00:39:17.838Z,1005.09
2018-07-02T00:40:17.899Z,1005.12
2018-07-02T00:41:17.959Z,1005.12
2018-07-02T00:42:18.019Z,1005.15
2018-07-02T00:43:18.078Z,1005.08
2018-07-02T00:44:18.139Z,1005.09
2018-07-02T00:45:18.348Z,1005.08
2018-07-02T00:46:18.257Z,1005.08
2018-07-02T00:47:18.316Z,1005.10
2018-07-02T00:48:18.376Z,1005.11
2018-07-02T00:49:18.437Z,1005.06
2018-07-02T00:50:18.497Z,1005.10
2018-07-02T00:51:18.554Z,1005.07
2018-07-02T00:52:18.615Z,1005.11
2018-07-02T00:53:18.675Z,1005.11
2018-07-02T00:54:18.741Z,1005.13
2018-07-02T00:55:18.794Z,1005.13
2018-07-02T00:56:18.855Z,1005.11
2018-07-02T00:57:18.912Z,1005.10
2018-07-02T00:58:18.974Z,1005.13
2018-07-02T00:59:19.031Z,1005.13
2018-07-02T01:00:19.091Z,1005.17
2018-07-02T01:01:19.152Z,1005.19
2018-07-02T01:02:19.214Z,1005.19
2018-07-02T01:03:19.270Z,1005.16
2018-07-02T01:04:19.328Z,1005.14
2018-07-02T01:05:19.639Z,1005.12
2018-07-02T01:06:19.447Z,1005.17
2018-07-02T01:07:19.507Z,1005.15
2018-07-02T01:08:19.570Z,1005.13
2018-07-02T01:09:19.626Z,1005.19
2018-07-02T01:10:19.686Z,1005.19
2018-07-02T01:11:19.744Z,1005.13
2018-07-02T01:12:19.807Z,1005.17
2018-07-02T01:13:19.865Z,1005.17
2018-07-02T01:14:19.924Z,1005.18
2018-07-02T01:15:19.983Z,1005.15
2018-07-02T01:16:20.045Z,1005.12
2018-07-02T01:17:20.102Z,1005.13
2018-07-02T01:18:20.164Z,1005.13
2018-07-02T01:19:20.220Z,1005.10
2018-07-02T01:20:20.283Z,1005.12
2018-07-02T01:21:20.545Z,1005.12
2018-07-02T01:22:20.413Z,1005.11
2018-07-02T01:23:20.459Z,1005.11
2018-07-02T01:24:20.535Z,1005.09
2018-07-02T01:25:20.578Z,1005.11
2018-07-02T01:26:20.637Z,1005.16
2018-07-02T01:27:20.697Z,1005.15
2018-07-02T01:28:20.756Z,1005.20
2018-07-02T01:29:20.816Z,1005.23
2018-07-02T01:30:20.873Z,1005.22
2018-07-02T01:31:20.933Z,1005.28
2018-07-02T01:32:20.993Z,1005.26
2018-07-02T01:33:21.052Z,1005.27
2018-07-02T01:34:21.113Z,1005.25
2018-07-02T01:35:21.171Z,1005.24
2018-07-02T01:36:21.231Z,1005.28
2018-07-02T01:37:21.290Z,1005.34
2018-07-02T01:38:21.349Z,1005.32
2018-07-02T01:39:21.410Z,1005.33
2018-07-02T01:40:21.467Z,1005.35
2018-07-02T01:41:21.528Z,1005.35
2018-07-02T01:42:21.587Z,1005.34
2018-07-02T01:43:21.652Z,1005.35
2018-07-02T01:44:21.705Z,1005.37
2018-07-02T01:45:21.765Z,1005.32
2018-07-02T01:46:21.825Z,1005.30
2018-07-02T01:47:21.883Z,1005.30
2018-07-02T01:48:21.943Z,1005.32
2018-07-02T01:49:22.002Z,1005.31
2018-07-02T01:50:22.063Z,1005.29
2018-07-02T01:51:22.121Z,1005.29
2018-07-02T01:52:22.180Z,1005.27
2018-07-02T01:53:22.239Z,1005.32
2018-07-02T01:54:22.301Z,1005.30
2018-07-02T01:55:22.358Z,1005.31
2018-07-02T01:56:22.417Z,1005.29
2018-07-02T01:57:22.476Z,1005.31
2018-07-02T01:58:22.536Z,1005.27
2018-07-02T01:59:22.595Z,1005.31
2018-07-02T02:00:22.656Z,1005.25
2018-07-02T02:01:22.715Z,1005.27
2018-07-02T02:02:22.774Z,1005.22
2018-07-02T02:03:22.831Z,1005.26
2018-07-02T02:04:22.891Z,1005.22
2018-07-02T02:05:22.951Z,1005.22
2018-07-02T02:06:23.016Z,1005.26
2018-07-02T02:07:23.069Z,1005.25
2018-07-02T02:08:23.128Z,1005.25
2018-07-02T02:09:23.194Z,1005.25
2018-07-02T02:10:23.248Z,1005.26
2018-07-02T02:11:23.306Z,1005.28
2018-07-02T02:12:23.365Z,1005.30
2018-07-02T02:13:23.425Z,1005.33
2018-07-02T02:14:23.485Z,1005.31
2018-07-02T02:15:23.543Z,1005.34
2018-07-02T02:16:23.603Z,1005.35
2018-07-02T02:17:23.662Z,1005.31
2018-07-02T02:18:23.723Z,1005.31
2018-07-02T02:19:23.779Z,1005.35
2018-07-02T02:20:23.840Z,1005.32
2018-07-02T02:21:23.900Z,1005.29
2018-07-02T02:22:23.959Z,1005.30
2018-07-02T02:23:24.168Z,1005.29
2018-07-02T02:24:24.076Z,1005.26
2018-07-02T02:25:24.135Z,1005.29
2018-07-02T02:26:24.195Z,1005.25
2018-07-02T02:27:24.253Z,1005.23
2018-07-02T02:28:24.313Z,1005.26
2018-07-02T02:29:24.371Z,1005.27
2018-07-02T02:30:24.432Z,1005.24
2018-07-02T02:31:24.489Z,1005.31
2018-07-02T02:32:24.549Z,1005.31
2018-07-02T02:33:24.609Z,1005.35
2018-07-02T02:34:24.673Z,1005.36
2018-07-02T02:35:24.727Z,1005.34
2018-07-02T02:36:24.785Z,1005.37
2018-07-02T02:37:24.844Z,1005.31
2018-07-02T02:38:24.969Z,1005.33
2018-07-02T02:39:24.962Z,1005.34
2018-07-02T02:40:25.021Z,1005.33
2018-07-02T02:41:25.080Z,1005.30
2018-07-02T02:42:25.139Z,1005.26
2018-07-02T02:43:25.198Z,1005.28
2018-07-02T02:44:25.257Z,1005.28
2018-07-02T02:45:25.316Z,1005.25
2018-07-02T02:46:25.376Z,1005.22
2018-07-02T02:47:25.434Z,1005.23
2018-07-02T02:48:25.495Z,1005.23
2018-07-02T02:49:25.553Z,1005.24
2018-07-02T02:50:25.611Z,1005.21
2018-07-02T02:51:25.671Z,1005.26
2018-07-02T02:52:25.730Z,1005.27
2018-07-02T02:53:25.789Z,1005.28
2018-07-02T02:54:25.847Z,1005.29
2018-07-02T02:55:25.905Z,1005.31
2018-07-02T02:56:25.965Z,1005.29
2018-07-02T02:57:26.024Z,1005.28
2018-07-02T02:58:26.082Z,1005.28
2018-07-02T02:59:26.147Z,1005.28
2018-07-02T03:00:26.200Z,1005.25
2018-07-02T03:01:26.259Z,1005.22
2018-07-02T03:02:26.319Z,1005.22
2018-07-02T03:03:26.378Z,1005.23
2018-07-02T03:04:26.435Z,1005.28
2018-07-02T03:05:26.497Z,1005.29
2018-07-02T03:06:26.554Z,1005.32
2018-07-02T03:07:26.612Z,1005.34
2018-07-02T03:08:26.671Z,1005.39
2018-07-02T03:09:26.730Z,1005.37
2018-07-02T03:10:26.790Z,1005.37
2018-07-02T03:11:26.850Z,1005.41
2018-07-02T03:12:26.906Z,1005.41
2018-07-02T03:13:26.968Z,1005.41
2018-07-02T03:14:27.025Z,1005.40
2018-07-02T03:15:27.084Z,1005.43
2018-07-02T03:16:27.142Z,1005.41
2018-07-02T03:17:27.202Z,1005.36
2018-07-02T03:18:27.262Z,1005.36
2018-07-02T03:19:27.627Z,1005.40
2018-07-02T03:20:27.388Z,1005.36
2018-07-02T03:21:27.438Z,1005.34
2018-07-02T03:22:27.497Z,1005.40
2018-07-02T03:23:27.553Z,1005.42
2018-07-02T03:24:27.618Z,1005.41
2018-07-02T03:25:27.672Z,1005.45
2018-07-02T03:26:27.732Z,1005.42
2018-07-02T03:27:27.789Z,1005.43
2018-07-02T03:28:27.847Z,1005.47
2018-07-02T03:29:27.909Z,1005.44
2018-07-02T03:30:27.966Z,1005.45
2018-07-02T03:31:28.024Z,1005.44
2018-07-02T03:32:28.082Z,1005.41
2018-07-02T03:33:28.142Z,1005.43
2018-07-02T03:34:28.201Z,1005.40
2018-07-02T03:35:28.258Z,1005.45
2018-07-02T03:36:28.317Z,1005.43
2018-07-02T03:37:28.377Z,1005.47
2018-07-02T03:38:28.434Z,1005.49
2018-07-02T03:39:28.493Z,1005.44
2018-07-02T03:40:28.553Z,1005.46
2018-07-02T03:41:28.610Z,1005.43
2018-07-02T03:42:28.669Z,1005.43
2018-07-02T03:43:28.727Z,1005.40
2018-07-02T03:44:28.787Z,1005.40
2018-07-02T03:45:28.845Z,1005.39
2018-07-02T03:46:28.904Z,1005.37
2018-07-02T03:47:28.961Z,1005.36
2018-07-02T03:48:29.020Z,1005.34
2018-07-02T03:49:29.079Z,1005.36
2018-07-02T03:50:29.139Z,1005.36
2018-07-02T03:51:29.196Z,1005.33
2018-07-02T03:52:29.255Z,1005.39
2018-07-02T03:53:29.316Z,1005.36
2018-07-02T03:54:29.374Z,1005.31
2018-07-02T03:55:29.431Z,1005.34
2018-07-02T03:56:29.489Z,1005.32
2018-07-02T03:57:29.548Z,1005.34
2018-07-02T03:58:29.608Z,1005.35
2018-07-02T03:59:29.666Z,1005.36
2018-07-02T04:00:29.753Z,1005.36
2018-07-02T04:01:29.818Z,1005.39
2018-07-02T04:02:29.843Z,1005.42
2018-07-02T04:03:29.902Z,1005.38
2018-07-02T04:04:29.958Z,1005.40
2018-07-02T04:05:30.020Z,1005.39
2018-07-02T04:06:30.076Z,1005.38
2018-07-02T04:07:30.135Z,1005.43
2018-07-02T04:08:30.194Z,1005.41
2018-07-02T04:09:30.252Z,1005.36
2018-07-02T04:10:30.312Z,1005.38
2018-07-02T04:11:30.372Z,1005.41
2018-07-02T04:12:30.428Z,1005.40
2018-07-02T04:13:30.487Z,1005.42
2018-07-02T04:14:30.546Z,1005.43
2018-07-02T04:15:30.606Z,1005.42
2018-07-02T04:16:30.663Z,1005.40
2018-07-02T04:17:30.721Z,1005.40
2018-07-02T04:18:30.780Z,1005.37
2018-07-02T04:19:30.880Z,1005.41
2018-07-02T04:20:30.897Z,1005.40
2018-07-02T04:21:30.957Z,1005.44
2018-07-02T04:22:31.015Z,1005.42
2018-07-02T04:23:31.073Z,1005.44
2018-07-02T04:24:31.132Z,1005.44
2018-07-02T04:25:31.191Z,1005.48
2018-07-02T04:26:31.250Z,1005.49
2018-07-02T04:27:31.310Z,1005.53
2018-07-02T04:28:31.365Z,1005.52
2018-07-02T04:29:31.425Z,1005.52
2018-07-02T04:30:31.485Z,1005.54
2018-07-02T04:31:31.542Z,1005.53
2018-07-02T04:32:31.602Z,1005.58
2018-07-02T04:33:31.660Z,1005.60
2018-07-02T04:34:31.720Z,1005.58
2018-07-02T04:35:31.777Z,1005.61
2018-07-02T04:36:31.835Z,1005.57
2018-07-02T04:37:31.895Z,1005.58
2018-07-02T04:38:31.953Z,1005.55
2018-07-02T04:39:32.012Z,1005.56
2018-07-02T04:40:32.072Z,1005.56
2018-07-02T04:41:32.130Z,1005.58
2018-07-02T04:42:32.189Z,1005.54
2018-07-02T04:43:32.245Z,1005.50
2018-07-02T04:44:32.304Z,1005.48
2018-07-02T04:45:32.365Z,1005.51
2018-07-02T04:46:32.423Z,1005.47
2018-07-02T04:47:32.495Z,1005.54
2018-07-02T04:48:32.547Z,1005.54
2018-07-02T04:49:32.599Z,1005.52
2018-07-02T04:50:32.658Z,1005.54
2018-07-02T04:51:32.717Z,1005.53
2018-07-02T04:52:32.774Z,1005.55
2018-07-02T04:53:32.834Z,1005.53
2018-07-02T04:54:32.892Z,1005.53
2018-07-02T04:55:32.952Z,1005.55
2018-07-02T04:56:33.010Z,1005.56
2018-07-02T04:57:33.069Z,1005.57
2018-07-02T04:58:33.130Z,1005.54
2018-07-02T04:59:33.263Z,1005.59
2018-07-02T05:00:33.243Z,1005.59
2018-07-02T05:01:33.304Z,1005.56
2018-07-02T05:02:33.366Z,1005.61
2018-07-02T05:03:33.420Z,1005.58
2018-07-02T05:04:33.479Z,1005.59
2018-07-02T05:05:33.539Z,1005.59
2018-07-02T05:06:33.597Z,1005.60
2018-07-02T05:07:33.823Z,1005.60
2018-07-02T05:08:33.714Z,1005.60
2018-07-02T05:09:33.775Z,1005.62
2018-07-02T05:10:33.890Z,1005.63
2018-07-02T05:11:33.892Z,1005.57
2018-07-02T05:12:33.954Z,1005.56
2018-07-02T05:13:34.009Z,1005.54
2018-07-02T05:14:34.072Z,1005.53
2018-07-02T05:15:34.129Z,1005.54
2018-07-02T05:16:34.185Z,1005.55
2018-07-02T05:17:34.246Z,1005.58
2018-07-02T05:18:34.430Z,1005.58
2018-07-02T05:19:34.363Z,1005.58
2018-07-02T05:20:34.429Z,1005.60
2018-07-02T05:21:34.480Z,1005.59
2018-07-02T05:22:34.540Z,1005.58
2018-07-02T05:23:34.598Z,1005.56
2018-07-02T05:24:34.665Z,1005.54
2018-07-02T05:25:34.716Z,1005.52
2018-07-02T05:26:34.777Z,1005.51
2018-07-02T05:27:34.838Z,1005.50
2018-07-02T05:28:34.893Z,1005.52
2018-07-02T05:29:34.953Z,1005.55
2018-07-02T05:30:35.012Z,1005.54
2018-07-02T05:31:35.071Z,1005.54
2018-07-02T05:32:35.130Z,1005.54
2018-07-02T05:33:35.188Z,1005.54
2018-07-02T05:34:35.249Z,1005.54
2018-07-02T05:35:35.307Z,1005.52
2018-07-02T05:36:35.366Z,1005.54
2018-07-02T05:37:35.427Z,1005.54
2018-07-02T05:38:35.486Z,1005.50
2018-07-02T05:39:35.545Z,1005.52
2018-07-02T05:40:35.607Z,1005.49
2018-07-02T05:41:35.664Z,1005.45
2018-07-02T05:42:35.724Z,1005.44
2018-07-02T05:43:35.784Z,1005.49
2018-07-02T05:44:36.528Z,1005.49
2018-07-02T05:45:35.902Z,1005.53
2018-07-02T05:46:35.961Z,1005.52
2018-07-02T05:47:36.019Z,1005.54
2018-07-02T05:48:36.115Z,1005.54
2018-07-02T05:49:36.139Z,1005.53
2018-07-02T05:50:36.198Z,1005.55
2018-07-02T05:51:36.259Z,1005.54
2018-07-02T05:52:36.319Z,1005.53
2018-07-02T05:53:36.378Z,1005.53
2018-07-02T05:54:36.439Z,1005.53
2018-07-02T05:55:36.498Z,1005.54
2018-07-02T05:56:36.557Z,1005.47
2018-07-02T05:57:36.619Z,1005.49
2018-07-02T05:58:36.677Z,1005.49
2018-07-02T05:59:36.736Z,1005.49
2018-07-02T06:00:36.852Z,1005.49
2018-07-02T06:01:36.857Z,1005.50
2018-07-02T06:02:36.918Z,1005.51
2018-07-02T06:03:36.977Z,1005.53
2018-07-02T06:04:37.037Z,1005.55
2018-07-02T06:05:37.097Z,1005.58
2018-07-02T06:06:37.157Z,1005.54
2018-07-02T06:07:37.215Z,1005.57
2018-07-02T06:08:37.276Z,1005.58
2018-07-02T06:09:37.337Z,1005.55
2018-07-02T06:10:38.074Z,1005.54
2018-07-02T06:11:37.460Z,1005.58
2018-07-02T06:12:37.515Z,1005.61
2018-07-02T06:13:37.577Z,1005.59
2018-07-02T06:14:37.638Z,1005.59
2018-07-02T06:15:37.697Z,1005.59
2018-07-02T06:16:37.773Z,1005.66
2018-07-02T06:17:37.817Z,1005.63
2018-07-02T06:18:37.878Z,1005.62
2018-07-02T06:19:37.937Z,1005.62
2018-07-02T06:20:37.996Z,1005.63
2018-07-02T06:21:38.059Z,1005.58
2018-07-02T06:22:38.119Z,1005.60
2018-07-02T06:23:38.180Z,1005.61
2018-07-02T06:24:38.241Z,1005.56
2018-07-02T06:25:38.301Z,1005.56
2018-07-02T06:26:38.361Z,1005.57
2018-07-02T06:27:38.419Z,1005.56
2018-07-02T06:28:38.482Z,1005.60
2018-07-02T06:29:38.545Z,1005.63
2018-07-02T06:30:38.606Z,1005.71
2018-07-02T06:31:39.598Z,1005.72
2018-07-02T06:32:39.378Z,1005.73
2018-07-02T06:33:38.787Z,1005.72
2018-07-02T06:34:38.847Z,1005.71
2018-07-02T06:35:38.906Z,1005.68
2018-07-02T06:36:38.967Z,1005.66
2018-07-02T06:37:39.028Z,1005.68
2018-07-02T06:38:39.090Z,1005.66
2018-07-02T06:39:39.150Z,1005.66
2018-07-02T06:40:39.211Z,1005.66
2018-07-02T06:41:39.272Z,1005.72
2018-07-02T06:42:39.334Z,1005.71
2018-07-02T06:43:39.394Z,1005.74
2018-07-02T06:44:39.456Z,1005.77
2018-07-02T06:45:39.517Z,1005.78
2018-07-02T06:46:39.577Z,1005.84
2018-07-02T06:47:39.637Z,1005.83
2018-07-02T06:48:39.699Z,1005.84
2018-07-02T06:49:39.763Z,1005.84
2018-07-02T06:50:39.822Z,1005.83
2018-07-02T06:51:39.882Z,1005.79
2018-07-02T06:52:39.945Z,1005.83
2018-07-02T06:53:40.028Z,1005.84
2018-07-02T06:54:40.066Z,1005.84
2018-07-02T06:55:40.126Z,1005.85
2018-07-02T06:56:40.190Z,1005.81
2018-07-02T06:57:40.500Z,1005.83
2018-07-02T06:58:40.367Z,1005.85
2018-07-02T06:59:40.372Z,1005.83
2018-07-02T07:00:40.432Z,1005.84
2018-07-02T07:01:40.956Z,1005.83
2018-07-02T07:02:40.559Z,1005.82
2018-07-02T07:03:40.618Z,1005.78
2018-07-02T07:04:40.679Z,1005.79
2018-07-02T07:05:40.741Z,1005.77
2018-07-02T07:06:40.802Z,1005.78
2018-07-02T07:07:40.863Z,1005.78
2018-07-02T07:08:40.949Z,1005.78
2018-07-02T07:09:40.987Z,1005.77
2018-07-02T07:10:41.056Z,1005.76
2018-07-02T07:11:41.109Z,1005.77
2018-07-02T07:12:41.172Z,1005.75
2018-07-02T07:13:41.233Z,1005.75
2018-07-02T07:14:41.295Z,1005.75
2018-07-02T07:15:41.362Z,1005.78
2018-07-02T07:16:41.418Z,1005.74
2018-07-02T07:17:41.731Z,1005.73
2018-07-02T07:18:41.542Z,1005.73
2018-07-02T07:19:41.604Z,1005.71
2018-07-02T07:20:41.667Z,1005.68
2018-07-02T07:21:41.727Z,1005.67
2018-07-02T07:22:41.789Z,1005.71
2018-07-02T07:23:41.851Z,1005.69
2018-07-02T07:24:41.913Z,1005.66
2018-07-02T07:25:42.005Z,1005.65
2018-07-02T07:26:42.038Z,1005.68
2018-07-02T07:27:42.098Z,1005.61
2018-07-02T07:28:42.168Z,1005.67
2018-07-02T07:29:42.222Z,1005.66
2018-07-02T07:30:42.284Z,1005.65
2018-07-02T07:31:42.345Z,1005.60
2018-07-02T07:32:42.411Z,1005.67
2018-07-02T07:33:42.470Z,1005.66
2018-07-02T07:34:42.533Z,1005.61
2018-07-02T07:35:42.594Z,1005.62
2018-07-02T07:36:42.656Z,1005.64
2018-07-02T07:37:42.720Z,1005.57
2018-07-02T07:38:42.781Z,1005.55
2018-07-02T07:39:42.843Z,1005.55
2018-07-02T07:40:42.934Z,1005.60
2018-07-02T07:41:42.992Z,1005.60
2018-07-02T07:42:43.050Z,1005.57
2018-07-02T07:43:43.093Z,1005.60
2018-07-02T07:44:43.168Z,1005.69
2018-07-02T07:45:43.216Z,1005.67
2018-07-02T07:46:43.280Z,1005.67
2018-07-02T07:47:43.340Z,1005.68
2018-07-02T07:48:43.416Z,1005.64
2018-07-02T07:49:43.465Z,1005.59
2018-07-02T07:50:43.527Z,1005.64
2018-07-02T07:51:43.608Z,1005.57
2018-07-02T07:52:43.654Z,1005.54
2018-07-02T07:53:43.720Z,1005.55
2018-07-02T07:54:43.780Z,1005.56
2018-07-02T07:55:43.839Z,1005.53
2018-07-02T07:56:43.901Z,1005.55
2018-07-02T07:57:43.969Z,1005.58
2018-07-02T07:58:44.027Z,1005.54
2018-07-02T07:59:44.090Z,1005.54
2018-07-02T08:00:44.151Z,1005.54
2018-07-02T08:01:44.214Z,1005.55
2018-07-02T08:02:44.278Z,1005.57
2018-07-02T08:03:44.409Z,1005.53
2018-07-02T08:04:44.876Z,1005.54
2018-07-02T08:05:44.470Z,1005.52
2018-07-02T08:06:44.530Z,1005.53
2018-07-02T08:07:44.589Z,1005.51
2018-07-02T08:08:44.655Z,1005.51
2018-07-02T08:09:44.715Z,1005.48
2018-07-02T08:10:44.777Z,1005.47
2018-07-02T08:11:44.839Z,1005.45
2018-07-02T08:12:44.902Z,1005.45
2018-07-02T08:13:44.966Z,1005.47
2018-07-02T08:14:45.030Z,1005.42
2018-07-02T08:15:45.091Z,1005.45
2018-07-02T08:16:45.154Z,1005.53
2018-07-02T08:17:45.217Z,1005.47
2018-07-02T08:18:45.281Z,1005.45
2018-07-02T08:19:45.341Z,1005.49
2018-07-02T08:20:45.404Z,1005.50
2018-07-02T08:21:45.471Z,1005.49
2018-07-02T08:22:45.531Z,1005.50
2018-07-02T08:23:45.593Z,1005.47
2018-07-02T08:24:45.655Z,1005.43
2018-07-02T08:25:45.719Z,1005.48
2018-07-02T08:26:45.784Z,1005.52
2018-07-02T08:27:46.460Z,1005.48
2018-07-02T08:28:45.908Z,1005.46
2018-07-02T08:29:45.972Z,1005.43
2018-07-02T08:30:46.036Z,1005.45
2018-07-02T08:31:46.098Z,1005.44
2018-07-02T08:32:46.190Z,1005.46
2018-07-02T08:33:46.226Z,1005.42
2018-07-02T08:34:46.287Z,1005.38
2018-07-02T08:35:46.350Z,1005.46
2018-07-02T08:36:47.133Z,1005.38
2018-07-02T08:37:47.057Z,1005.48
2018-07-02T08:38:46.540Z,1005.41
2018-07-02T08:39:46.603Z,1005.44
2018-07-02T08:40:46.667Z,1005.40
2018-07-02T08:41:46.730Z,1005.44
2018-07-02T08:42:46.793Z,1005.37
2018-07-02T08:43:46.856Z,1005.40
2018-07-02T08:44:46.920Z,1005.36
2018-07-02T08:45:46.984Z,1005.38
2018-07-02T08:46:47.066Z,1005.41
2018-07-02T08:47:47.230Z,1005.42
2018-07-02T08:48:47.175Z,1005.42
2018-07-02T08:49:47.270Z,1005.37
2018-07-02T08:50:47.303Z,1005.34
2018-07-02T08:51:47.363Z,1005.33
2018-07-02T08:52:47.471Z,1005.30
2018-07-02T08:53:47.490Z,1005.30
2018-07-02T08:54:47.555Z,1005.26
2018-07-02T08:55:47.618Z,1005.26
2018-07-02T08:56:47.682Z,1005.27
2018-07-02T08:57:47.745Z,1005.25
2018-07-02T08:58:47.810Z,1005.25
2018-07-02T08:59:47.876Z,1005.28
2018-07-02T09:00:47.937Z,1005.27
2018-07-02T09:01:47.999Z,1005.25
2018-07-02T09:02:48.065Z,1005.22
2018-07-02T09:03:48.133Z,1005.18
2018-07-02T09:04:48.564Z,1005.17
2018-07-02T09:05:48.255Z,1005.16
2018-07-02T09:06:48.327Z,1005.11
2018-07-02T09:07:48.382Z,1005.11
2018-07-02T09:08:48.449Z,1005.04
2018-07-02T09:09:48.510Z,1005.08
2018-07-02T09:10:48.608Z,1005.09
2018-07-02T09:11:48.642Z,1005.17
2018-07-02T09:13:36.160Z,1005.18
2018-07-02T09:14:36.231Z,1005.16
2018-07-02T09:15:36.285Z,1005.20
2018-07-02T09:16:36.350Z,1005.19
2018-07-02T09:17:36.414Z,1005.24
2018-07-02T09:18:36.479Z,1005.17
2018-07-02T09:19:36.546Z,1005.13
2018-07-02T09:20:36.637Z,1005.09
2018-07-02T09:21:36.670Z,1005.14
2018-07-02T09:22:36.735Z,1005.12
2018-07-02T09:23:36.797Z,1005.14
2018-07-02T09:24:36.862Z,1005.20
2018-07-02T09:25:36.929Z,1005.17
2018-07-02T09:26:36.991Z,1005.13
2018-07-02T09:27:37.056Z,1005.13
2018-07-02T09:28:37.119Z,1005.12
2018-07-02T09:29:37.183Z,1005.08
2018-07-02T09:30:37.249Z,1005.14
2018-07-02T09:31:37.311Z,1005.11
2018-07-02T09:32:37.449Z,1005.23
2018-07-02T09:33:37.443Z,1005.17
2018-07-02T09:34:37.507Z,1005.22
2018-07-02T09:35:37.570Z,1005.21
2018-07-02T09:36:37.634Z,1005.11
2018-07-02T09:37:37.748Z,1005.15
2018-07-02T09:38:37.763Z,1005.17
2018-07-02T09:39:37.827Z,1005.14
2018-07-02T09:40:37.899Z,1005.21
2018-07-02T09:41:37.958Z,1005.21
2018-07-02T09:42:38.022Z,1005.22
2018-07-02T09:43:38.085Z,1005.21
2018-07-02T09:44:38.150Z,1005.27
2018-07-02T09:45:38.215Z,1005.27
2018-07-02T09:46:38.282Z,1005.26
2018-07-02T09:47:38.345Z,1005.37
2018-07-02T09:48:38.408Z,1005.28
2018-07-02T09:49:38.475Z,1005.26
2018-07-02T09:50:38.540Z,1005.26
2018-07-02T09:51:38.819Z,1005.24
2018-07-02T09:52:38.669Z,1005.28
2018-07-02T09:53:38.734Z,1005.15
2018-07-02T09:54:38.799Z,1005.28
2018-07-02T09:55:38.864Z,1005.24
2018-07-02T09:56:38.949Z,1005.25
2018-07-02T09:57:38.993Z,1005.25
2018-07-02T09:58:39.059Z,1005.22
2018-07-02T09:59:39.128Z,1005.27
2018-07-02T10:00:39.202Z,1005.26
2018-07-02T10:01:39.255Z,1005.32
2018-07-02T10:02:39.318Z,1005.30
2018-07-02T10:03:39.635Z,1005.31
2018-07-02T10:04:39.450Z,1005.41
2018-07-02T10:05:39.517Z,1005.35
2018-07-02T10:06:39.653Z,1005.53
2018-07-02T10:07:39.648Z,1005.76
2018-07-02T10:08:39.719Z,1005.97
2018-07-02T10:09:39.782Z,1006.06
2018-07-02T10:10:39.850Z,1006.06
2018-07-02T10:11:39.917Z,1006.19
2018-07-02T10:12:40.045Z,1006.18
2018-07-02T10:13:40.054Z,1006.12
2018-07-02T10:14:40.122Z,1006.12
2018-07-02T10:15:40.191Z,1006.18
2018-07-02T10:16:40.259Z,1006.12
2018-07-02T10:17:40.329Z,1006.16
2018-07-02T10:18:40.400Z,1006.17
2018-07-02T10:19:40.468Z,1006.12
2018-07-02T10:20:40.539Z,1006.22
2018-07-02T10:21:40.609Z,1006.18
2018-07-02T10:22:40.681Z,1006.20
2018-07-02T10:23:40.757Z,1006.18
2018-07-02T10:24:40.821Z,1006.20
2018-07-02T10:25:40.893Z,1006.15
2018-07-02T10:26:40.965Z,1006.22
2018-07-02T10:27:41.035Z,1006.17
2018-07-02T10:28:41.108Z,1006.18
2018-07-02T10:29:41.184Z,1006.17
2018-07-02T10:30:41.296Z,1006.17
2018-07-02T10:31:41.323Z,1006.20
2018-07-02T10:32:41.399Z,1006.23
2018-07-02T10:33:41.468Z,1006.20
2018-07-02T10:34:41.572Z,1006.25
2018-07-02T10:35:41.621Z,1006.23
2018-07-02T10:36:41.690Z,1006.27
2018-07-02T10:37:41.763Z,1006.31
2018-07-02T10:38:41.837Z,1006.33
2018-07-02T10:39:42.064Z,1006.31
2018-07-02T10:40:41.983Z,1006.31
2018-07-02T10:41:42.056Z,1006.30
2018-07-02T10:42:42.131Z,1006.26
2018-07-02T10:43:42.203Z,1006.24
2018-07-02T10:44:42.278Z,1006.24
2018-07-02T10:45:42.353Z,1006.21
2018-07-02T10:46:42.429Z,1006.20
2018-07-02T10:47:42.501Z,1006.20
2018-07-02T10:48:42.580Z,1006.22
2018-07-02T10:49:42.650Z,1006.23
2018-07-02T10:50:42.729Z,1006.19
2018-07-02T10:51:42.802Z,1006.17
2018-07-02T10:52:42.877Z,1006.20
2018-07-02T10:53:42.955Z,1006.15
2018-07-02T10:54:43.026Z,1006.17
2018-07-02T10:55:43.107Z,1006.14
2018-07-02T10:56:43.177Z,1006.14
2018-07-02T10:57:43.252Z,1006.17
2018-07-02T10:58:43.326Z,1006.13
2018-07-02T10:59:43.402Z,1006.20
2018-07-02T11:00:43.477Z,1006.31
2018-07-02T11:01:43.552Z,1006.25
2018-07-02T11:02:43.625Z,1006.22
2018-07-02T11:03:43.702Z,1006.17
2018-07-02T11:04:43.775Z,1006.13
2018-07-02T11:05:44.102Z,1006.08
2018-07-02T11:06:43.924Z,1006.07
2018-07-02T11:07:43.997Z,1005.98
2018-07-02T11:08:44.072Z,1006.03
2018-07-02T11:09:44.146Z,1005.94
2018-07-02T11:10:44.222Z,1005.98
2018-07-02T11:11:44.295Z,1006.06
2018-07-02T11:12:44.371Z,1006.06
2018-07-02T11:13:44.444Z,1006.00
2018-07-02T11:14:44.525Z,1006.03
2018-07-02T11:15:44.593Z,1006.05
2018-07-02T11:16:44.668Z,1005.98
2018-07-02T11:17:44.743Z,1005.96
2018-07-02T11:18:44.816Z,1005.99
2018-07-02T11:19:44.894Z,1005.98
2018-07-02T11:20:44.966Z,1005.95
2018-07-02T11:21:45.040Z,1005.93
2018-07-02T11:22:45.115Z,1005.87
2018-07-02T11:23:45.208Z,1005.83
2018-07-02T11:24:45.408Z,1005.81
2018-07-02T11:25:45.338Z,1005.84
2018-07-02T11:26:45.413Z,1005.89
2018-07-02T11:27:45.488Z,1005.83
2018-07-02T11:28:45.562Z,1005.88
2018-07-02T11:29:45.639Z,1005.86
2018-07-02T11:30:45.713Z,1005.84
2018-07-02T11:31:45.787Z,1005.80
2018-07-02T11:32:45.862Z,1005.75
2018-07-02T11:33:45.941Z,1005.82
2018-07-02T11:34:46.014Z,1005.84
2018-07-02T11:35:46.814Z,1005.80
2018-07-02T11:36:46.163Z,1005.84
2018-07-02T11:37:46.238Z,1005.86
2018-07-02T11:38:46.314Z,1005.90
2018-07-02T11:39:46.387Z,1005.91
2018-07-02T11:40:46.463Z,1005.93
2018-07-02T11:42:46.614Z,1006.01
2018-07-02T11:43:46.689Z,1006.07
2018-07-02T11:44:46.764Z,1006.15
2018-07-02T11:45:46.840Z,1006.35
2018-07-02T11:46:46.917Z,1006.52
2018-07-02T11:47:46.998Z,1006.77
2018-07-02T11:48:47.067Z,1007.00
2018-07-02T11:49:47.162Z,1007.17
2018-07-02T11:50:47.219Z,1007.44
2018-07-02T11:51:47.294Z,1007.49
2018-07-02T11:52:47.370Z,1007.67
2018-07-02T11:53:47.444Z,1007.77
2018-07-02T11:54:47.520Z,1007.91
2018-07-02T11:55:47.595Z,1008.02
2018-07-02T11:56:47.671Z,1008.05
2018-07-02T11:57:47.747Z,1007.98
2018-07-02T11:58:47.834Z,1007.95
2018-07-02T11:59:47.898Z,1007.90
2018-07-02T12:00:47.975Z,1007.86
2018-07-02T12:01:48.104Z,1007.81
2018-07-02T12:02:48.131Z,1007.84
2018-07-02T12:03:48.206Z,1007.90
2018-07-02T12:04:48.280Z,1007.94
2018-07-02T12:05:48.357Z,1007.95
2018-07-02T12:06:48.432Z,1007.90
2018-07-02T12:07:48.511Z,1007.88